Decoded Metar for KCDR (CHADRON in NE, USA) (IATA:CDR) | Meteo·Mobile Aviation Weather
aviador You're here:

KCDR Decoded Metar

CHADRON in NE, USA
Report Time2018-12-15 17:53:00
UTC Time2018-12-15 18:15:50
Flight Rules vfr VFR
Wind150° at 06 kt
W.Decomp.*RWY 11: 5.2 kt HW 2.9 kt RCW
RWY 20: 2.9 kt HW 5.2 kt LCW
W.Rank150° ranks 21
Current wind is below 150° avg. (8.8)
Visibility9999 m
Phenomena:N/A
Clouds:N/A
Expected CloudBase > 2,800 ft AGL from Temp-Dew spread
CeilingNone
Temp06°C (ISA -2)
Dew Point-1°C (61% RH)
AAT1.7°C
QNH1014 hPa
Density Alt3,077 ft
Elevation3,314 ft
Report Wrong Elevation
Raw Report
KCDR 151753Z AUTO 15006KT 10SM CLR 06/M01 A2995 RMK AO2 SLP163
T00611011 10072 21022 51020=

Extra information for KCDR:More info

Metar Taf Metar & Taf Last 4 Metars F.Rules Stats Wind Profile Meteogram Temp Stats Airport Information Weather charts Add Link Nearby VenuesMetar ALERT Operation Metar Decoded Social comments

AIRNAV info for KCDR